createdAt,value
2023-03-05T00:07:34.185Z,8.60
2023-03-05T00:18:34.101Z,7.50
2023-03-05T00:29:33.931Z,9.70
2023-03-05T00:40:33.871Z,9.10
2023-03-05T00:51:33.702Z,11.80
2023-03-05T01:02:34.808Z,11.00
2023-03-05T01:13:33.415Z,9.20
2023-03-05T01:24:33.342Z,9.30
2023-03-05T01:35:33.222Z,11.00
2023-03-05T01:46:33.047Z,11.10
2023-03-05T01:57:32.913Z,8.30
2023-03-05T02:08:32.819Z,8.10
2023-03-05T02:19:32.668Z,8.70
2023-03-05T02:30:32.605Z,7.80
2023-03-05T02:41:32.442Z,9.10
2023-03-05T02:52:32.299Z,9.90
2023-03-05T03:03:32.285Z,10.10
2023-03-05T03:14:32.056Z,9.10
2023-03-05T03:25:31.956Z,9.60
2023-03-05T03:36:31.899Z,11.80
2023-03-05T03:47:31.695Z,10.90
2023-03-05T03:58:31.593Z,10.80
2023-03-05T04:09:31.461Z,10.00
2023-03-05T04:20:31.326Z,10.00
2023-03-05T04:31:31.224Z,9.60
2023-03-05T04:42:31.095Z,11.50
2023-03-05T04:53:30.956Z,11.80
2023-03-05T05:04:30.829Z,10.80
2023-03-05T05:15:30.712Z,8.00
2023-03-05T05:26:30.594Z,9.50
2023-03-05T05:37:30.485Z,9.30
2023-03-05T05:48:30.379Z,8.00
2023-03-05T05:59:30.229Z,7.20
2023-03-05T06:10:30.103Z,8.80
2023-03-05T06:21:29.981Z,9.30
2023-03-05T06:32:29.862Z,8.20
2023-03-05T06:43:29.749Z,8.60
2023-03-05T06:54:29.638Z,6.30
2023-03-05T07:05:29.489Z,6.50
2023-03-05T07:16:29.374Z,9.00
2023-03-05T07:27:29.242Z,6.90
2023-03-05T07:38:29.127Z,6.70
2023-03-05T07:49:28.999Z,8.30
2023-03-05T08:00:28.930Z,5.10
2023-03-05T08:11:28.844Z,7.20
2023-03-05T08:22:28.648Z,6.50
2023-03-05T08:33:31.187Z,8.00
2023-03-05T08:44:28.394Z,4.70
2023-03-05T08:55:28.281Z,4.80
2023-03-05T09:06:28.155Z,5.40
2023-03-05T09:17:28.029Z,5.20
2023-03-05T09:28:27.900Z,4.40
2023-03-05T09:39:27.779Z,5.20
2023-03-05T09:50:27.648Z,4.40
2023-03-05T10:01:27.566Z,3.80
2023-03-05T10:12:27.405Z,4.40
2023-03-05T10:23:27.280Z,4.00
2023-03-05T10:34:27.184Z,3.20
2023-03-05T10:45:27.041Z,4.40
2023-03-05T10:56:26.936Z,3.00
2023-03-05T11:07:26.843Z,2.80
2023-03-05T11:18:26.670Z,3.70
2023-03-05T11:29:26.548Z,3.40
2023-03-05T11:40:26.425Z,3.40
2023-03-05T11:51:26.320Z,2.70
2023-03-05T12:02:26.265Z,3.50
2023-03-05T12:13:26.072Z,2.90
2023-03-05T12:24:28.120Z,3.30
2023-03-05T12:35:25.855Z,2.10
2023-03-05T12:46:25.773Z,2.20
2023-03-05T12:57:25.659Z,2.10
2023-03-05T13:08:25.481Z,2.00
2023-03-05T13:19:32.882Z,2.40
2023-03-05T13:30:10.522Z,3.10
2023-03-05T13:41:15.874Z,3.30
2023-03-05T13:52:15.811Z,2.50
2023-03-05T14:03:15.494Z,2.90
2023-03-05T14:14:15.524Z,2.40
2023-03-05T14:25:14.954Z,3.90
2023-03-05T14:36:14.758Z,2.90
2023-03-05T14:47:14.647Z,4.00
2023-03-05T14:58:14.523Z,2.60
2023-03-05T15:09:14.398Z,3.30
2023-03-05T15:20:14.277Z,2.50
2023-03-05T15:31:14.282Z,6.20
2023-03-05T15:42:14.033Z,2.90
2023-03-05T15:53:13.926Z,3.20
2023-03-05T16:04:13.789Z,3.70
2023-03-05T16:15:13.679Z,3.00
2023-03-05T16:26:13.558Z,2.40
2023-03-05T16:37:13.472Z,3.30
2023-03-05T16:48:13.319Z,2.70
2023-03-05T16:59:13.187Z,3.60
2023-03-05T17:10:13.064Z,3.60
2023-03-05T17:21:12.943Z,3.80
2023-03-05T17:32:12.852Z,3.50
2023-03-05T17:43:12.791Z,3.80
2023-03-05T17:54:12.573Z,2.90
2023-03-05T18:05:12.456Z,3.40
2023-03-05T18:16:12.412Z,3.50
2023-03-05T18:27:12.230Z,4.20
2023-03-05T18:38:12.088Z,3.10
2023-03-05T18:49:11.971Z,3.40
2023-03-05T19:00:11.883Z,3.50
2023-03-05T19:11:11.711Z,5.10
2023-03-05T19:22:11.627Z,4.80
2023-03-05T19:33:11.472Z,4.30
2023-03-05T19:44:11.355Z,3.30
2023-03-05T19:55:11.248Z,4.20
2023-03-05T20:06:11.098Z,4.30
2023-03-05T20:17:10.976Z,3.90
2023-03-05T20:28:10.853Z,4.30
2023-03-05T20:39:10.796Z,4.50
2023-03-05T20:50:10.672Z,5.10
2023-03-05T21:01:10.567Z,6.10
2023-03-05T21:12:10.369Z,4.90
2023-03-05T21:23:10.250Z,5.50
2023-03-05T21:34:10.159Z,4.10
2023-03-05T21:45:10.131Z,4.80
2023-03-05T21:56:09.875Z,4.30
2023-03-05T22:07:09.747Z,4.50
2023-03-05T22:18:09.630Z,5.30
2023-03-05T22:29:09.501Z,5.20
2023-03-05T22:40:09.419Z,5.00
2023-03-05T22:51:09.282Z,6.80
2023-03-05T23:02:09.148Z,5.10
2023-03-05T23:13:09.016Z,6.60
2023-03-05T23:24:08.898Z,6.60
2023-03-05T23:35:08.780Z,7.20
2023-03-05T23:46:08.665Z,6.50
2023-03-05T23:57:08.540Z,6.30
